sensor_id;sensor_type;location;lat;lon;timestamp;pressure;altitude;pressure_sealevel;temperature;humidity
72359;BME280;60317;48.880;-0.862;2022-12-10T00:01:04;99709.66;;;20.56;28.68
72359;BME280;60317;48.880;-0.862;2022-12-10T00:03:31;99707.97;;;20.55;28.84
72359;BME280;60317;48.880;-0.862;2022-12-10T00:05:59;99706.13;;;20.56;28.89
72359;BME280;60317;48.880;-0.862;2022-12-10T00:08:25;99700.75;;;20.56;28.81
72359;BME280;60317;48.880;-0.862;2022-12-10T00:10:52;99698.91;;;20.56;28.69
72359;BME280;60317;48.880;-0.862;2022-12-10T00:13:18;99698.91;;;20.56;28.79
72359;BME280;60317;48.880;-0.862;2022-12-10T00:15:44;99696.41;;;20.55;28.82
72359;BME280;60317;48.880;-0.862;2022-12-10T00:18:12;99698.09;;;20.56;28.67
72359;BME280;60317;48.880;-0.862;2022-12-10T00:20:38;99707.97;;;20.55;28.79
72359;BME280;60317;48.880;-0.862;2022-12-10T00:23:04;99701.78;;;20.55;28.77
72359;BME280;60317;48.880;-0.862;2022-12-10T00:25:31;99717.03;;;20.54;28.65
72359;BME280;60317;48.880;-0.862;2022-12-10T00:27:58;99716.03;;;20.55;28.88
72359;BME280;60317;48.880;-0.862;2022-12-10T00:30:24;99711.66;;;20.54;28.70
72359;BME280;60317;48.880;-0.862;2022-12-10T00:32:50;99702.78;;;20.54;28.67
72359;BME280;60317;48.880;-0.862;2022-12-10T00:35:18;99710.84;;;20.54;28.77
72359;BME280;60317;48.880;-0.862;2022-12-10T00:37:44;99715.19;;;20.55;28.74
72359;BME280;60317;48.880;-0.862;2022-12-10T00:40:11;99711.66;;;20.54;28.57
72359;BME280;60317;48.880;-0.862;2022-12-10T00:42:37;99708.16;;;20.54;28.39
72359;BME280;60317;48.880;-0.862;2022-12-10T00:45:04;99718.88;;;20.54;28.58
72359;BME280;60317;48.880;-0.862;2022-12-10T00:47:30;99715.31;;;20.53;28.65
72359;BME280;60317;48.880;-0.862;2022-12-10T00:49:57;99707.28;;;20.53;28.68
72359;BME280;60317;48.880;-0.862;2022-12-10T00:52:24;99709.81;;;20.55;28.58
72359;BME280;60317;48.880;-0.862;2022-12-10T00:54:51;99711.66;;;20.54;28.51
72359;BME280;60317;48.880;-0.862;2022-12-10T00:57:17;99717.03;;;20.54;28.59
72359;BME280;60317;48.880;-0.862;2022-12-10T00:59:43;99717.03;;;20.54;28.44
72359;BME280;60317;48.880;-0.862;2022-12-10T01:02:10;99720.56;;;20.55;28.55
72359;BME280;60317;48.880;-0.862;2022-12-10T01:04:36;99721.56;;;20.54;28.63
72359;BME280;60317;48.880;-0.862;2022-12-10T01:07:03;99726.78;;;20.55;28.58
72359;BME280;60317;48.880;-0.862;2022-12-10T01:09:37;99728.75;;;20.53;28.42
72359;BME280;60317;48.880;-0.862;2022-12-10T01:12:04;99729.63;;;20.54;28.43
72359;BME280;60317;48.880;-0.862;2022-12-10T01:14:31;99734.13;;;20.53;28.39
72359;BME280;60317;48.880;-0.862;2022-12-10T01:16:59;99727.78;;;20.54;28.38
72359;BME280;60317;48.880;-0.862;2022-12-10T01:19:26;99722.41;;;20.54;28.41
72359;BME280;60317;48.880;-0.862;2022-12-10T01:21:52;99718.88;;;20.54;28.32
72359;BME280;60317;48.880;-0.862;2022-12-10T01:24:19;99720.69;;;20.53;28.45
72359;BME280;60317;48.880;-0.862;2022-12-10T01:26:47;99720.69;;;20.53;28.46
72359;BME280;60317;48.880;-0.862;2022-12-10T01:29:13;99718.88;;;20.54;28.39
72359;BME280;60317;48.880;-0.862;2022-12-10T01:31:40;99720.69;;;20.53;28.26
72359;BME280;60317;48.880;-0.862;2022-12-10T01:34:07;99722.53;;;20.53;28.50
72359;BME280;60317;48.880;-0.862;2022-12-10T01:36:36;99726.06;;;20.53;28.50
72359;BME280;60317;48.880;-0.862;2022-12-10T01:39:03;99723.38;;;20.53;28.25
72359;BME280;60317;48.880;-0.862;2022-12-10T01:41:32;99734.13;;;20.53;28.41
72359;BME280;60317;48.880;-0.862;2022-12-10T01:44:01;99736.81;;;20.53;28.30
72359;BME280;60317;48.880;-0.862;2022-12-10T01:46:28;99738.66;;;20.53;28.20
72359;BME280;60317;48.880;-0.862;2022-12-10T01:48:55;99732.44;;;20.52;28.10
72359;BME280;60317;48.880;-0.862;2022-12-10T01:51:22;99740.34;;;20.54;28.29
72359;BME280;60317;48.880;-0.862;2022-12-10T01:53:49;99731.31;;;20.55;28.23
72359;BME280;60317;48.880;-0.862;2022-12-10T01:56:16;99735.00;;;20.54;28.09
72359;BME280;60317;48.880;-0.862;2022-12-10T01:58:43;99731.59;;;20.52;28.08
72359;BME280;60317;48.880;-0.862;2022-12-10T02:01:11;99742.34;;;20.52;28.13
72359;BME280;60317;48.880;-0.862;2022-12-10T02:03:42;99749.38;;;20.53;28.00
72359;BME280;60317;48.880;-0.862;2022-12-10T02:06:15;99747.72;;;20.52;28.08
72359;BME280;60317;48.880;-0.862;2022-12-10T02:08:46;99748.53;;;20.52;28.10
72359;BME280;60317;48.880;-0.862;2022-12-10T02:11:19;99751.41;;;20.51;28.10
72359;BME280;60317;48.880;-0.862;2022-12-10T02:13:50;99757.59;;;20.51;27.95
72359;BME280;60317;48.880;-0.862;2022-12-10T02:16:21;99749.66;;;20.49;28.08
72359;BME280;60317;48.880;-0.862;2022-12-10T02:18:54;99765.50;;;20.53;28.13
72359;BME280;60317;48.880;-0.862;2022-12-10T02:21:24;99749.38;;;20.53;27.85
72359;BME280;60317;48.880;-0.862;2022-12-10T02:23:54;99751.22;;;20.52;27.98
72359;BME280;60317;48.880;-0.862;2022-12-10T02:26:23;99755.75;;;20.52;27.99
72359;BME280;60317;48.880;-0.862;2022-12-10T02:28:52;99753.06;;;20.52;27.98
72359;BME280;60317;48.880;-0.862;2022-12-10T02:31:23;99755.75;;;20.52;28.03
72359;BME280;60317;48.880;-0.862;2022-12-10T02:33:52;99759.28;;;20.52;28.05
72359;BME280;60317;48.880;-0.862;2022-12-10T02:36:21;99763.81;;;20.52;27.95
72359;BME280;60317;48.880;-0.862;2022-12-10T02:38:49;99752.34;;;20.49;28.04
72359;BME280;60317;48.880;-0.862;2022-12-10T02:41:18;99754.09;;;20.51;27.94
72359;BME280;60317;48.880;-0.862;2022-12-10T02:43:46;99751.41;;;20.51;28.11
72359;BME280;60317;48.880;-0.862;2022-12-10T02:46:14;99745.19;;;20.50;27.80
72359;BME280;60317;48.880;-0.862;2022-12-10T02:48:43;99750.38;;;20.52;27.92
72359;BME280;60317;48.880;-0.862;2022-12-10T02:51:10;99750.66;;;20.48;27.83
72359;BME280;60317;48.880;-0.862;2022-12-10T02:53:40;99751.41;;;20.51;27.78
72359;BME280;60317;48.880;-0.862;2022-12-10T02:56:08;99746.97;;;20.49;27.76
72359;BME280;60317;48.880;-0.862;2022-12-10T02:58:41;99746.13;;;20.49;27.67
72359;BME280;60317;48.880;-0.862;2022-12-10T03:01:15;99752.22;;;20.51;27.62
72359;BME280;60317;48.880;-0.862;2022-12-10T03:03:47;99754.19;;;20.49;27.73
72359;BME280;60317;48.880;-0.862;2022-12-10T03:06:16;99747.13;;;20.48;27.68
72359;BME280;60317;48.880;-0.862;2022-12-10T03:08:45;99756.75;;;20.51;27.66
72359;BME280;60317;48.880;-0.862;2022-12-10T03:11:15;99754.19;;;20.49;27.72
72359;BME280;60317;48.880;-0.862;2022-12-10T03:13:45;99757.72;;;20.49;27.67
72359;BME280;60317;48.880;-0.862;2022-12-10T03:16:14;99755.03;;;20.49;27.76
72359;BME280;60317;48.880;-0.862;2022-12-10T03:18:41;99749.66;;;20.49;27.60
72359;BME280;60317;48.880;-0.862;2022-12-10T03:21:10;99741.75;;;20.48;27.66
72359;BME280;60317;48.880;-0.862;2022-12-10T03:23:37;99737.22;;;20.48;27.63
72359;BME280;60317;48.880;-0.862;2022-12-10T03:26:07;99734.56;;;20.48;27.54
72359;BME280;60317;48.880;-0.862;2022-12-10T03:28:34;99744.28;;;20.49;27.60
72359;BME280;60317;48.880;-0.862;2022-12-10T03:31:03;99752.34;;;20.49;27.67
72359;BME280;60317;48.880;-0.862;2022-12-10T03:33:30;99752.34;;;20.49;27.55
72359;BME280;60317;48.880;-0.862;2022-12-10T03:35:57;99746.13;;;20.49;27.57
72359;BME280;60317;48.880;-0.862;2022-12-10T03:38:25;99752.22;;;20.51;27.42
72359;BME280;60317;48.880;-0.862;2022-12-10T03:40:51;99749.66;;;20.49;27.37
72359;BME280;60317;48.880;-0.862;2022-12-10T03:43:18;99756.75;;;20.51;27.24
72359;BME280;60317;48.880;-0.862;2022-12-10T03:45:44;99749.66;;;20.49;27.55
72359;BME280;60317;48.880;-0.862;2022-12-10T03:48:10;99741.59;;;20.49;27.54
72359;BME280;60317;48.880;-0.862;2022-12-10T03:50:37;99743.44;;;20.49;27.50
72359;BME280;60317;48.880;-0.862;2022-12-10T03:53:03;99744.28;;;20.49;27.52
72359;BME280;60317;48.880;-0.862;2022-12-10T03:55:31;99749.66;;;20.49;27.37
72359;BME280;60317;48.880;-0.862;2022-12-10T03:57:57;99757.72;;;20.49;27.34
72359;BME280;60317;48.880;-0.862;2022-12-10T04:00:23;99753.34;;;20.48;27.54
72359;BME280;60317;48.880;-0.862;2022-12-10T04:02:50;99751.50;;;20.49;27.38
72359;BME280;60317;48.880;-0.862;2022-12-10T04:05:16;99758.72;;;20.48;27.42
72359;BME280;60317;48.880;-0.862;2022-12-10T04:07:43;99760.38;;;20.49;27.25
72359;BME280;60317;48.880;-0.862;2022-12-10T04:10:09;99760.38;;;20.49;27.34
72359;BME280;60317;48.880;-0.862;2022-12-10T04:12:37;99759.56;;;20.49;27.30
72359;BME280;60317;48.880;-0.862;2022-12-10T04:15:04;99748.81;;;20.49;27.35
72359;BME280;60317;48.880;-0.862;2022-12-10T04:17:31;99756.88;;;20.49;27.23
72359;BME280;60317;48.880;-0.862;2022-12-10T04:19:57;99764.91;;;20.49;27.23
72359;BME280;60317;48.880;-0.862;2022-12-10T04:22:23;99758.72;;;20.48;27.20
72359;BME280;60317;48.880;-0.862;2022-12-10T04:24:50;99758.72;;;20.48;27.23
72359;BME280;60317;48.880;-0.862;2022-12-10T04:27:18;99768.59;;;20.48;27.31
72359;BME280;60317;48.880;-0.862;2022-12-10T04:29:46;99772.97;;;20.49;27.09
72359;BME280;60317;48.880;-0.862;2022-12-10T04:32:13;99768.59;;;20.48;27.17
72359;BME280;60317;48.880;-0.862;2022-12-10T04:34:39;99759.56;;;20.49;27.21
72359;BME280;60317;48.880;-0.862;2022-12-10T04:37:05;99765.91;;;20.48;27.15
72359;BME280;60317;48.880;-0.862;2022-12-10T04:39:32;99770.28;;;20.49;26.92
72359;BME280;60317;48.880;-0.862;2022-12-10T04:41:59;99773.81;;;20.49;27.14
72359;BME280;60317;48.880;-0.862;2022-12-10T04:44:26;99783.72;;;20.49;27.04
72359;BME280;60317;48.880;-0.862;2022-12-10T04:46:54;99790.91;;;20.48;27.08
72359;BME280;60317;48.880;-0.862;2022-12-10T04:49:20;99789.06;;;20.49;27.11
72359;BME280;60317;48.880;-0.862;2022-12-10T04:51:47;99790.91;;;20.48;27.04
72359;BME280;60317;48.880;-0.862;2022-12-10T04:54:13;99790.91;;;20.48;27.01
72359;BME280;60317;48.880;-0.862;2022-12-10T04:56:39;99795.44;;;20.48;26.91
72359;BME280;60317;48.880;-0.862;2022-12-10T04:59:06;99778.50;;;20.47;26.96
72359;BME280;60317;48.880;-0.862;2022-12-10T05:01:33;99778.34;;;20.49;27.08
72359;BME280;60317;48.880;-0.862;2022-12-10T05:04:02;99773.97;;;20.48;26.99
72359;BME280;60317;48.880;-0.862;2022-12-10T05:06:29;99776.66;;;20.48;26.85
72359;BME280;60317;48.880;-0.862;2022-12-10T05:08:56;99788.25;;;20.48;26.90
72359;BME280;60317;48.880;-0.862;2022-12-10T05:11:24;99786.41;;;20.49;26.89
72359;BME280;60317;48.880;-0.862;2022-12-10T05:13:51;99789.25;;;20.47;26.90
72359;BME280;60317;48.880;-0.862;2022-12-10T05:16:18;99784.72;;;20.48;26.92
72359;BME280;60317;48.880;-0.862;2022-12-10T05:18:45;99773.97;;;20.48;26.82
72359;BME280;60317;48.880;-0.862;2022-12-10T05:21:13;99769.63;;;20.47;26.72
72359;BME280;60317;48.880;-0.862;2022-12-10T05:23:40;99768.59;;;20.48;26.73
72359;BME280;60317;48.880;-0.862;2022-12-10T05:26:08;99767.59;;;20.49;26.77
72359;BME280;60317;48.880;-0.862;2022-12-10T05:28:35;99765.09;;;20.47;26.66
72359;BME280;60317;48.880;-0.862;2022-12-10T05:31:02;99771.28;;;20.48;26.67
72359;BME280;60317;48.880;-0.862;2022-12-10T05:33:29;99773.97;;;20.48;26.88
72359;BME280;60317;48.880;-0.862;2022-12-10T05:35:57;99780.19;;;20.48;26.70
72359;BME280;60317;48.880;-0.862;2022-12-10T05:38:25;99793.59;;;20.48;26.70
72359;BME280;60317;48.880;-0.862;2022-12-10T05:40:52;99791.94;;;20.47;26.79
72359;BME280;60317;48.880;-0.862;2022-12-10T05:43:22;99791.94;;;20.47;26.78
72359;BME280;60317;48.880;-0.862;2022-12-10T05:45:48;99794.63;;;20.47;26.60
72359;BME280;60317;48.880;-0.862;2022-12-10T05:48:15;99800.81;;;20.48;26.64
72359;BME280;60317;48.880;-0.862;2022-12-10T05:50:42;99788.41;;;20.47;26.61
72359;BME280;60317;48.880;-0.862;2022-12-10T05:53:08;99783.03;;;20.47;26.51
72359;BME280;60317;48.880;-0.862;2022-12-10T05:55:36;99785.56;;;20.48;26.62
72359;BME280;60317;48.880;-0.862;2022-12-10T05:58:02;99798.97;;;20.48;26.60
72359;BME280;60317;48.880;-0.862;2022-12-10T06:00:28;99797.97;;;20.49;26.46
72359;BME280;60317;48.880;-0.862;2022-12-10T06:02:55;99795.44;;;20.48;26.45
72359;BME280;60317;48.880;-0.862;2022-12-10T06:05:21;99802.50;;;20.49;26.47
72359;BME280;60317;48.880;-0.862;2022-12-10T06:07:48;99808.72;;;20.49;26.58
72359;BME280;60317;48.880;-0.862;2022-12-10T06:10:14;99809.72;;;20.48;26.45
72359;BME280;60317;48.880;-0.862;2022-12-10T06:12:42;99795.44;;;20.48;26.38
72359;BME280;60317;48.880;-0.862;2022-12-10T06:15:09;99794.63;;;20.47;26.37
72359;BME280;60317;48.880;-0.862;2022-12-10T06:17:35;99792.75;;;20.48;26.40
72359;BME280;60317;48.880;-0.862;2022-12-10T06:20:02;99796.44;;;20.47;26.40
72359;BME280;60317;48.880;-0.862;2022-12-10T06:22:28;99795.63;;;20.46;26.31
72359;BME280;60317;48.880;-0.862;2022-12-10T06:24:54;99792.94;;;20.46;26.39
72359;BME280;60317;48.880;-0.862;2022-12-10T06:27:21;99798.97;;;20.48;26.58
72359;BME280;60317;48.880;-0.862;2022-12-10T06:29:48;99799.81;;;20.49;26.31
72359;BME280;60317;48.880;-0.862;2022-12-10T06:32:15;99795.44;;;20.48;26.37
72359;BME280;60317;48.880;-0.862;2022-12-10T06:34:41;99791.94;;;20.47;26.41
72359;BME280;60317;48.880;-0.862;2022-12-10T06:37:08;99788.41;;;20.47;26.25
72359;BME280;60317;48.880;-0.862;2022-12-10T06:39:34;99795.44;;;20.48;26.24
72359;BME280;60317;48.880;-0.862;2022-12-10T06:42:01;99794.63;;;20.47;26.29
72359;BME280;60317;48.880;-0.862;2022-12-10T06:44:27;99799.97;;;20.47;26.24
72359;BME280;60317;48.880;-0.862;2022-12-10T06:46:55;99810.72;;;20.47;26.26
72359;BME280;60317;48.880;-0.862;2022-12-10T06:49:21;99815.25;;;20.47;26.25
72359;BME280;60317;48.880;-0.862;2022-12-10T06:51:47;99816.09;;;20.47;26.20
72359;BME280;60317;48.880;-0.862;2022-12-10T06:54:14;99810.72;;;20.47;26.15
72359;BME280;60317;48.880;-0.862;2022-12-10T06:56:40;99815.25;;;20.47;26.34
72359;BME280;60317;48.880;-0.862;2022-12-10T06:59:07;99815.09;;;20.48;26.26
72359;BME280;60317;48.880;-0.862;2022-12-10T07:01:33;99819.59;;;20.48;26.20
72359;BME280;60317;48.880;-0.862;2022-12-10T07:04:01;99818.59;;;20.49;26.09
72359;BME280;60317;48.880;-0.862;2022-12-10T07:06:27;99817.75;;;20.48;26.15
72359;BME280;60317;48.880;-0.862;2022-12-10T07:08:54;99826.81;;;20.47;26.18
72359;BME280;60317;48.880;-0.862;2022-12-10T07:11:21;99823.28;;;20.47;26.09
72359;BME280;60317;48.880;-0.862;2022-12-10T07:13:47;99833.19;;;20.46;26.21
72359;BME280;60317;48.880;-0.862;2022-12-10T07:16:15;99828.66;;;20.47;26.26
72359;BME280;60317;48.880;-0.862;2022-12-10T07:18:42;99825.97;;;20.47;26.09
72359;BME280;60317;48.880;-0.862;2022-12-10T07:21:18;99832.19;;;20.47;26.01
72359;BME280;60317;48.880;-0.862;2022-12-10T07:23:45;99830.50;;;20.46;25.99
72359;BME280;60317;48.880;-0.862;2022-12-10T07:26:11;99825.13;;;20.46;26.22
72359;BME280;60317;48.880;-0.862;2022-12-10T07:28:37;99829.63;;;20.46;26.14
72359;BME280;60317;48.880;-0.862;2022-12-10T07:31:17;99836.72;;;20.47;26.03
72359;BME280;60317;48.880;-0.862;2022-12-10T07:33:44;99834.03;;;20.47;26.00
72359;BME280;60317;48.880;-0.862;2022-12-10T07:36:11;99834.88;;;20.47;26.07
72359;BME280;60317;48.880;-0.862;2022-12-10T07:38:38;99843.78;;;20.48;26.04
72359;BME280;60317;48.880;-0.862;2022-12-10T07:41:05;99850.97;;;20.47;25.96
72359;BME280;60317;48.880;-0.862;2022-12-10T07:43:32;99842.94;;;20.47;25.89
72359;BME280;60317;48.880;-0.862;2022-12-10T07:46:03;99846.63;;;20.46;26.05
72359;BME280;60317;48.880;-0.862;2022-12-10T07:48:29;99848.28;;;20.47;25.87
72359;BME280;60317;48.880;-0.862;2022-12-10T07:50:56;99846.63;;;20.46;25.96
72359;BME280;60317;48.880;-0.862;2022-12-10T07:53:24;99847.47;;;20.47;26.02
72359;BME280;60317;48.880;-0.862;2022-12-10T07:55:51;99853.66;;;20.47;25.94
72359;BME280;60317;48.880;-0.862;2022-12-10T07:58:18;99847.47;;;20.47;25.93
72359;BME280;60317;48.880;-0.862;2022-12-10T08:00:44;99849.31;;;20.46;25.88
72359;BME280;60317;48.880;-0.862;2022-12-10T08:03:11;99854.66;;;20.46;25.88
72359;BME280;60317;48.880;-0.862;2022-12-10T08:05:37;99864.41;;;20.47;25.99
72359;BME280;60317;48.880;-0.862;2022-12-10T08:08:04;99865.53;;;20.45;25.95
72359;BME280;60317;48.880;-0.862;2022-12-10T08:10:33;99882.47;;;20.45;25.82
72359;BME280;60317;48.880;-0.862;2022-12-10T08:13:01;99873.59;;;20.45;25.87
72359;BME280;60317;48.880;-0.862;2022-12-10T08:15:27;99877.94;;;20.46;26.02
72359;BME280;60317;48.880;-0.862;2022-12-10T08:17:54;99871.75;;;20.45;25.92
72359;BME280;60317;48.880;-0.862;2022-12-10T08:20:20;99877.13;;;20.45;26.02
72359;BME280;60317;48.880;-0.862;2022-12-10T08:22:46;99880.78;;;20.44;25.93
72359;BME280;60317;48.880;-0.862;2022-12-10T08:25:13;99886.16;;;20.44;25.78
72359;BME280;60317;48.880;-0.862;2022-12-10T08:27:39;99883.31;;;20.46;25.90
72359;BME280;60317;48.880;-0.862;2022-12-10T08:30:07;99890.53;;;20.45;25.87
72359;BME280;60317;48.880;-0.862;2022-12-10T08:32:34;99885.31;;;20.44;25.84
72359;BME280;60317;48.880;-0.862;2022-12-10T08:35:01;99888.00;;;20.44;25.81
72359;BME280;60317;48.880;-0.862;2022-12-10T08:37:27;99896.91;;;20.44;25.96
72359;BME280;60317;48.880;-0.862;2022-12-10T08:39:53;99897.91;;;20.43;25.94
72359;BME280;60317;48.880;-0.862;2022-12-10T08:42:20;99895.22;;;20.43;25.78
72359;BME280;60317;48.880;-0.862;2022-12-10T08:44:46;99900.59;;;20.43;25.87
72359;BME280;60317;48.880;-0.862;2022-12-10T08:47:14;99909.31;;;20.45;25.83
72359;BME280;60317;48.880;-0.862;2022-12-10T08:49:40;99906.81;;;20.44;25.95
72359;BME280;60317;48.880;-0.862;2022-12-10T08:52:06;99909.63;;;20.42;25.92
72359;BME280;60317;48.880;-0.862;2022-12-10T08:54:33;99909.63;;;20.42;25.79
72359;BME280;60317;48.880;-0.862;2022-12-10T08:56:59;99912.28;;;20.42;25.87
72359;BME280;60317;48.880;-0.862;2022-12-10T08:59:25;99922.19;;;20.42;25.90
72359;BME280;60317;48.880;-0.862;2022-12-10T09:01:52;99920.34;;;20.42;26.01
72359;BME280;60317;48.880;-0.862;2022-12-10T09:04:23;99918.66;;;20.41;26.05
72359;BME280;60317;48.880;-0.862;2022-12-10T09:06:49;99917.81;;;20.41;26.07
72359;BME280;60317;48.880;-0.862;2022-12-10T09:09:16;99910.78;;;20.40;26.08
72359;BME280;60317;48.880;-0.862;2022-12-10T09:11:42;99914.31;;;20.40;26.10
72359;BME280;60317;48.880;-0.862;2022-12-10T09:14:08;99911.63;;;20.40;26.01
72359;BME280;60317;48.880;-0.862;2022-12-10T09:16:35;99911.63;;;20.40;26.02
72359;BME280;60317;48.880;-0.862;2022-12-10T09:19:02;99913.47;;;20.40;25.94
72359;BME280;60317;48.880;-0.862;2022-12-10T09:21:30;99920.66;;;20.39;26.07
72359;BME280;60317;48.880;-0.862;2022-12-10T09:23:57;99912.63;;;20.39;26.30
72359;BME280;60317;48.880;-0.862;2022-12-10T09:26:23;99924.31;;;20.38;26.11
72359;BME280;60317;48.880;-0.862;2022-12-10T09:28:50;99916.28;;;20.38;26.22
72359;BME280;60317;48.880;-0.862;2022-12-10T09:31:17;99911.91;;;20.37;26.29
72359;BME280;60317;48.880;-0.862;2022-12-10T09:33:46;99917.28;;;20.37;26.05
72359;BME280;60317;48.880;-0.862;2022-12-10T09:36:13;99919.13;;;20.37;26.30
72359;BME280;60317;48.880;-0.862;2022-12-10T09:38:42;99911.06;;;20.37;26.18
72359;BME280;60317;48.880;-0.862;2022-12-10T09:41:13;99918.28;;;20.36;26.32
72359;BME280;60317;48.880;-0.862;2022-12-10T09:43:44;99926.31;;;20.36;26.38
72359;BME280;60317;48.880;-0.862;2022-12-10T09:46:15;99912.03;;;20.36;26.35
72359;BME280;60317;48.880;-0.862;2022-12-10T09:48:48;99913.88;;;20.35;26.31
72359;BME280;60317;48.880;-0.862;2022-12-10T09:51:19;99911.34;;;20.34;26.38
72359;BME280;60317;48.880;-0.862;2022-12-10T09:53:48;99921.25;;;20.33;26.48
72359;BME280;60317;48.880;-0.862;2022-12-10T09:56:17;99914.16;;;20.32;26.29
72359;BME280;60317;48.880;-0.862;2022-12-10T09:58:45;99924.06;;;20.32;26.51
72359;BME280;60317;48.880;-0.862;2022-12-10T10:01:12;99921.53;;;20.30;26.64
72359;BME280;60317;48.880;-0.862;2022-12-10T10:03:41;99921.53;;;20.30;26.66
72359;BME280;60317;48.880;-0.862;2022-12-10T10:06:08;99928.75;;;20.30;26.64
72359;BME280;60317;48.880;-0.862;2022-12-10T10:08:38;99932.41;;;20.29;26.77
72359;BME280;60317;48.880;-0.862;2022-12-10T10:11:09;99931.44;;;20.30;26.59
72359;BME280;60317;48.880;-0.862;2022-12-10T10:13:38;99930.72;;;20.27;26.70
72359;BME280;60317;48.880;-0.862;2022-12-10T10:16:16;99928.19;;;20.26;26.79
72359;BME280;60317;48.880;-0.862;2022-12-10T10:18:45;99926.34;;;20.26;26.86
72359;BME280;60317;48.880;-0.862;2022-12-10T10:21:14;99930.88;;;20.26;26.85
72359;BME280;60317;48.880;-0.862;2022-12-10T10:23:43;99927.47;;;20.24;26.92
72359;BME280;60317;48.880;-0.862;2022-12-10T10:26:11;99923.94;;;20.23;27.03
72359;BME280;60317;48.880;-0.862;2022-12-10T10:28:38;99923.78;;;20.25;26.97
72359;BME280;60317;48.880;-0.862;2022-12-10T10:31:08;99929.31;;;20.23;27.01
72359;BME280;60317;48.880;-0.862;2022-12-10T10:33:39;99927.63;;;20.22;26.93
72359;BME280;60317;48.880;-0.862;2022-12-10T10:36:13;99921.56;;;20.20;26.95
72359;BME280;60317;48.880;-0.862;2022-12-10T10:38:39;99924.22;;;20.20;27.01
72359;BME280;60317;48.880;-0.862;2022-12-10T10:41:14;99922.69;;;20.18;27.18
72359;BME280;60317;48.880;-0.862;2022-12-10T10:43:41;99922.69;;;20.18;27.27
72359;BME280;60317;48.880;-0.862;2022-12-10T10:46:10;99921.00;;;20.17;27.12
72359;BME280;60317;48.880;-0.862;2022-12-10T10:48:37;99922.69;;;20.18;27.13
72359;BME280;60317;48.880;-0.862;2022-12-10T10:51:05;99914.63;;;20.18;27.21
72359;BME280;60317;48.880;-0.862;2022-12-10T10:53:39;99918.47;;;20.15;27.27
72359;BME280;60317;48.880;-0.862;2022-12-10T10:56:06;99921.16;;;20.15;27.33
72359;BME280;60317;48.880;-0.862;2022-12-10T10:58:35;99913.09;;;20.15;27.39
72359;BME280;60317;48.880;-0.862;2022-12-10T11:01:03;99910.53;;;20.14;27.39
72359;BME280;60317;48.880;-0.862;2022-12-10T11:03:30;99909.88;;;20.12;27.48
72359;BME280;60317;48.880;-0.862;2022-12-10T11:05:57;99909.69;;;20.13;27.53
72359;BME280;60317;48.880;-0.862;2022-12-10T11:08:25;99906.34;;;20.11;27.48
72359;BME280;60317;48.880;-0.862;2022-12-10T11:10:54;99904.34;;;20.13;27.61
72359;BME280;60317;48.880;-0.862;2022-12-10T11:13:23;99901.81;;;20.12;27.46
72359;BME280;60317;48.880;-0.862;2022-12-10T11:15:55;99900.09;;;20.11;27.64
72359;BME280;60317;48.880;-0.862;2022-12-10T11:18:24;99892.06;;;20.11;27.55
72359;BME280;60317;48.880;-0.862;2022-12-10T11:20:56;99893.91;;;20.10;27.76
72359;BME280;60317;48.880;-0.862;2022-12-10T11:23:23;99886.84;;;20.09;27.83
72359;BME280;60317;48.880;-0.862;2022-12-10T11:25:54;99893.06;;;20.10;27.85
72359;BME280;60317;48.880;-0.862;2022-12-10T11:28:29;99891.38;;;20.09;27.81
72359;BME280;60317;48.880;-0.862;2022-12-10T11:31:03;99887.13;;;20.06;27.99
72359;BME280;60317;48.880;-0.862;2022-12-10T11:33:33;99881.75;;;20.06;28.04
72359;BME280;60317;48.880;-0.862;2022-12-10T11:36:05;99889.97;;;20.05;28.04
72359;BME280;60317;48.880;-0.862;2022-12-10T11:38:37;99880.22;;;20.03;28.17
72359;BME280;60317;48.880;-0.862;2022-12-10T11:41:09;99880.38;;;20.02;28.21
72359;BME280;60317;48.880;-0.862;2022-12-10T11:43:42;99877.81;;;20.00;28.22
72359;BME280;60317;48.880;-0.862;2022-12-10T11:46:17;99879.81;;;19.98;28.32
72359;BME280;60317;48.880;-0.862;2022-12-10T11:48:51;99881.78;;;19.96;28.40
72359;BME280;60317;48.880;-0.862;2022-12-10T11:51:23;99883.63;;;19.96;28.53
72359;BME280;60317;48.880;-0.862;2022-12-10T11:53:55;99879.38;;;19.93;28.63
72359;BME280;60317;48.880;-0.862;2022-12-10T11:56:28;99885.75;;;19.92;28.53
72359;BME280;60317;48.880;-0.862;2022-12-10T11:58:58;99883.22;;;19.91;28.83
72359;BME280;60317;48.880;-0.862;2022-12-10T12:01:36;99877.84;;;19.91;28.71
72359;BME280;60317;48.880;-0.862;2022-12-10T12:04:14;99885.06;;;19.90;28.74
72359;BME280;60317;48.880;-0.862;2022-12-10T12:06:51;99879.81;;;19.89;28.75
72359;BME280;60317;48.880;-0.862;2022-12-10T12:09:20;99878.97;;;19.88;28.88
72359;BME280;60317;48.880;-0.862;2022-12-10T12:11:53;99880.94;;;19.86;29.06
72359;BME280;60317;48.880;-0.862;2022-12-10T12:14:22;99873.06;;;19.85;28.92
72359;BME280;60317;48.880;-0.862;2022-12-10T12:16:54;99866.97;;;19.83;29.07
72359;BME280;60317;48.880;-0.862;2022-12-10T12:19:28;99862.63;;;19.82;29.08
72359;BME280;60317;48.880;-0.862;2022-12-10T12:21:57;99852.88;;;19.81;29.08
72359;BME280;60317;48.880;-0.862;2022-12-10T12:24:28;99853.84;;;19.79;29.22
72359;BME280;60317;48.880;-0.862;2022-12-10T12:27:00;99859.22;;;19.79;29.18
72359;BME280;60317;48.880;-0.862;2022-12-10T12:29:28;99858.53;;;19.77;29.17
72359;BME280;60317;48.880;-0.862;2022-12-10T12:32:04;99858.66;;;19.76;29.17
72359;BME280;60317;48.880;-0.862;2022-12-10T12:34:37;99858.66;;;19.76;29.23
72359;BME280;60317;48.880;-0.862;2022-12-10T12:37:09;99854.31;;;19.75;29.26
72359;BME280;60317;48.880;-0.862;2022-12-10T12:39:39;99849.94;;;19.74;29.19
72359;BME280;60317;48.880;-0.862;2022-12-10T12:42:11;99850.94;;;19.73;29.24
72359;BME280;60317;48.880;-0.862;2022-12-10T12:44:47;99854.59;;;19.72;29.27
72359;BME280;60317;48.880;-0.862;2022-12-10T12:47:19;99847.53;;;19.71;29.34
72359;BME280;60317;48.880;-0.862;2022-12-10T12:49:48;99850.38;;;19.69;29.38
72359;BME280;60317;48.880;-0.862;2022-12-10T12:52:18;99847.69;;;19.69;29.30
72359;BME280;60317;48.880;-0.862;2022-12-10T12:54:47;99853.19;;;19.68;29.32